Time;durP1;ratioP1;P1;durP2;ratioP2;P2;SDS_P1;SDS_P2;PMS_P1;PMS_P2;Temp;Humidity;BMP_temperature;BMP_pressure;BME280_temperature;BME280_humidity;BME280_pressure;Samples;Min_cycle;Max_cycle;Signal;HPM_P1;HPM_P2
2022/07/14 00:00:09;;;;;;;1.40;1.30;;;;;;;18.40;nan;-24329.47;4981325;28;20199;-56
2022/07/14 00:02:35;;;;;;;1.60;1.50;;;;;;;18.81;nan;-24340.63;4977726;28;20312;-55
2022/07/14 00:05:00;;;;;;;2.67;1.98;;;;;;;19.03;nan;-24346.63;4977272;28;20689;-56
2022/07/14 00:07:27;;;;;;;1.52;1.38;;;;;;;18.85;nan;-24341.75;4979136;28;20189;-55
2022/07/14 00:09:52;;;;;;;1.73;1.40;;;;;;;18.76;nan;-24339.25;4975256;28;20186;-56
2022/07/14 00:12:18;;;;;;;1.70;1.60;;;;;;;18.91;nan;-24343.41;4978841;28;20181;-55
2022/07/14 00:14:44;;;;;;;1.70;1.60;;;;;;;18.77;nan;-24339.53;4976807;28;20189;-55
2022/07/14 00:17:09;;;;;;;2.10;1.70;;;;;;;18.60;nan;-24334.91;4980336;28;20191;-55
2022/07/14 00:19:36;;;;;;;2.00;1.58;;;;;;;18.53;nan;-24333.13;4981491;28;20688;-55
2022/07/14 00:22:01;;;;;;;2.10;1.80;;;;;;;18.64;nan;-24335.91;4980839;28;20587;-55
2022/07/14 00:24:26;;;;;;;1.50;1.40;;;;;;;18.46;nan;-24331.16;4981045;28;20188;-55
2022/07/14 00:26:52;;;;;;;2.20;1.60;;;;;;;18.47;nan;-24331.44;4981082;28;20189;-55
2022/07/14 00:29:18;;;;;;;2.72;1.50;;;;;;;18.71;nan;-24338.00;4980651;28;20177;-55
2022/07/14 00:31:43;;;;;;;1.73;1.60;;;;;;;18.42;nan;-24330.03;4978561;28;20236;-55
2022/07/14 00:34:09;;;;;;;1.80;1.60;;;;;;;18.52;nan;-24332.81;4980031;28;20205;-55
2022/07/14 00:36:34;;;;;;;2.03;1.77;;;;;;;18.49;nan;-24331.84;4981056;28;20283;-55
2022/07/14 00:38:59;;;;;;;1.45;1.35;;;;;;;18.64;nan;-24335.91;4980641;28;20567;-56
2022/07/14 00:41:25;;;;;;;2.55;1.75;;;;;;;18.41;nan;-24329.75;4980693;28;20200;-56
2022/07/14 00:43:50;;;;;;;1.83;1.70;;;;;;;18.57;nan;-24333.94;4980271;28;20185;-56
2022/07/14 00:46:16;;;;;;;1.50;1.40;;;;;;;15.49;nan;-24249.03;4982525;28;20181;-54
2022/07/14 00:48:42;;;;;;;1.70;1.60;;;;;;;18.66;nan;-24336.44;4976480;28;20192;-56
2022/07/14 00:51:07;;;;;;;1.70;1.60;;;;;;;18.47;nan;-24331.28;4979237;28;20184;-55
2022/07/14 00:53:33;;;;;;;2.00;1.80;;;;;;;18.25;nan;-24325.31;4981103;28;20183;-56
2022/07/14 00:55:59;;;;;;;1.70;1.60;;;;;;;18.28;nan;-24326.13;4979867;28;20527;-55
2022/07/14 00:58:24;;;;;;;2.25;1.55;;;;;;;18.37;nan;-24328.50;4980105;28;20189;-55
2022/07/14 01:00:51;;;;;;;1.67;1.58;;;;;;;18.10;nan;-24321.13;4977473;28;20673;-56
2022/07/14 01:03:17;;;;;;;1.92;1.73;;;;;;;18.13;nan;-24321.81;4980021;28;20196;-55
2022/07/14 01:05:43;;;;;;;1.98;1.55;;;;;;;18.08;nan;-24320.56;4979701;28;20189;-57
2022/07/14 01:08:09;;;;;;;2.03;1.70;;;;;;;18.31;nan;-24326.97;4982505;28;20280;-55
2022/07/14 01:10:35;;;;;;;1.70;1.60;;;;;;;18.29;nan;-24326.28;4980327;28;20657;-55
2022/07/14 01:13:04;;;;;;;2.95;1.77;;;;;;;17.83;nan;-24313.75;4980194;28;20206;-56
2022/07/14 01:15:29;;;;;;;1.92;1.73;;;;;;;18.17;nan;-24323.06;4981167;28;20184;-54
2022/07/14 01:17:55;;;;;;;2.13;1.80;;;;;;;18.18;nan;-24323.34;4974831;28;20251;-55
2022/07/14 01:20:22;;;;;;;2.05;1.60;;;;;;;18.48;nan;-24331.72;4980898;28;20196;-56
2022/07/14 01:22:48;;;;;;;2.08;1.88;;;;;;;18.37;nan;-24328.50;4977658;28;20209;-56
2022/07/14 01:25:15;;;;;;;1.70;1.40;;;;;;;18.34;nan;-24327.81;4981595;28;20236;-56
2022/07/14 01:27:41;;;;;;;1.60;1.50;;;;;;;18.54;nan;-24333.25;4979834;28;20224;-54
2022/07/14 01:30:08;;;;;;;1.90;1.63;;;;;;;18.50;nan;-24332.13;4981124;28;20213;-56
2022/07/14 01:32:34;;;;;;;1.77;1.60;;;;;;;18.28;nan;-24326.00;4980612;28;20192;-56
2022/07/14 01:34:59;;;;;;;2.55;1.60;;;;;;;18.51;nan;-24332.56;4978003;28;20575;-55
2022/07/14 01:37:25;;;;;;;3.22;1.90;;;;;;;18.69;nan;-24337.28;4981629;28;20227;-54
2022/07/14 01:39:51;;;;;;;2.10;1.63;;;;;;;18.73;nan;-24338.41;4982585;28;20219;-54
2022/07/14 01:42:17;;;;;;;1.85;1.60;;;;;;;18.63;nan;-24335.75;4979636;28;20292;-54
2022/07/14 01:44:42;;;;;;;2.15;1.88;;;;;;;18.83;nan;-24341.19;4977658;28;20186;-55
2022/07/14 01:47:09;;;;;;;3.03;2.00;;;;;;;18.53;nan;-24333.13;4983831;28;20200;-55
2022/07/14 01:49:34;;;;;;;1.88;1.60;;;;;;;18.65;nan;-24336.19;4978071;28;20204;-55
2022/07/14 01:52:00;;;;;;;1.85;1.70;;;;;;;18.38;nan;-24328.78;4980111;28;20653;-55
2022/07/14 01:54:25;;;;;;;2.42;1.80;;;;;;;18.70;nan;-24337.72;4979074;28;20225;-55
2022/07/14 01:56:51;;;;;;;2.17;1.52;;;;;;;18.97;nan;-24345.09;4979508;28;20189;-55
2022/07/14 01:59:16;;;;;;;1.85;1.50;;;;;;;18.79;nan;-24340.06;4979480;28;20675;-55
2022/07/14 02:01:44;;;;;;;2.00;1.67;;;;;;;19.09;nan;-24348.28;4979663;28;20205;-55
2022/07/14 02:04:16;;;;;;;2.53;1.63;;;;;;;13.81;nan;-24202.50;4983799;28;20234;-56
2022/07/14 02:06:53;;;;;;;1.88;1.70;;;;;;;18.89;nan;-24342.84;4979293;28;20260;-55
2022/07/14 02:09:19;;;;;;;1.60;1.50;;;;;;;18.73;nan;-24338.41;4981309;28;20189;-56
2022/07/14 02:14:32;;;;;;;2.55;1.90;;;;;;;18.50;nan;-24332.13;4981678;28;20184;-55
2022/07/14 02:16:58;;;;;;;1.75;1.58;;;;;;;18.82;nan;-24340.91;4977312;28;20189;-55
2022/07/14 02:19:24;;;;;;;2.05;1.80;;;;;;;18.98;nan;-24345.38;4980732;28;20200;-54
2022/07/14 02:21:51;;;;;;;2.72;2.10;;;;;;;19.10;nan;-24348.56;4978708;28;20193;-56
2022/07/14 02:24:17;;;;;;;2.33;1.77;;;;;;;19.01;nan;-24346.19;4978973;28;20203;-55
2022/07/14 02:26:43;;;;;;;4.10;2.30;;;;;;;18.75;nan;-24339.09;4976278;28;20244;-55
2022/07/14 02:29:08;;;;;;;4.47;1.90;;;;;;;;;;4980733;28;20243;-54
2022/07/14 02:31:34;;;;;;;2.05;1.80;;;;;;;18.57;nan;-24334.09;4979236;28;20671;-56
2022/07/14 02:34:00;;;;;;;1.90;1.70;;;;;;;18.41;nan;-24329.63;4978812;28;20607;-55
2022/07/14 02:36:27;;;;;;;3.80;2.08;;;;;;;18.51;nan;-24332.56;4980138;28;20231;-56
2022/07/14 02:38:52;;;;;;;2.53;2.33;;;;;;;16.58;nan;-24279.25;4978086;28;20182;-55
2022/07/14 02:41:18;;;;;;;1.60;1.50;;;;;;;19.06;nan;-24347.59;4982320;28;20219;-56
2022/07/14 02:43:43;;;;;;;2.25;1.90;;;;;;;18.71;nan;-24338.00;4977992;28;20637;-55
2022/07/14 02:46:09;;;;;;;2.22;1.80;;;;;;;19.00;nan;-24345.91;4980306;28;20173;-56
2022/07/14 02:48:35;;;;;;;2.10;1.85;;;;;;;18.74;nan;-24338.69;4976426;28;20720;-56
2022/07/14 02:51:02;;;;;;;3.50;1.70;;;;;;;18.66;nan;-24336.59;4976511;28;20193;-55
2022/07/14 02:53:28;;;;;;;2.70;2.10;;;;;;;18.57;nan;-24333.94;4979913;28;20188;-55
2022/07/14 02:55:54;;;;;;;2.13;1.92;;;;;;;18.86;nan;-24342.16;4978341;28;20196;-55
2022/07/14 02:58:20;;;;;;;3.03;1.85;;;;;;;18.80;nan;-24340.34;4978192;28;20181;-56
2022/07/14 03:00:45;;;;;;;2.45;1.80;;;;;;;19.01;nan;-24346.19;4977932;28;20189;-56
2022/07/14 03:03:11;;;;;;;2.88;1.75;;;;;;;19.20;nan;-24351.34;4980015;28;20265;-55
2022/07/14 03:05:37;;;;;;;1.80;1.60;;;;;;;19.13;nan;-24349.53;4978589;28;20264;-55
2022/07/14 03:08:03;;;;;;;2.55;2.13;;;;;;;19.27;nan;-24353.44;4978386;28;20272;-56
2022/07/14 03:10:28;;;;;;;2.75;2.00;;;;;;;19.47;nan;-24358.72;4976215;28;20189;-55
2022/07/14 03:12:54;;;;;;;3.95;1.83;;;;;;;19.97;nan;-24372.63;4978080;28;20189;-56
2022/07/14 03:15:19;;;;;;;2.20;2.00;;;;;;;20.53;nan;-24387.91;4982219;28;20181;-56
2022/07/14 03:17:45;;;;;;;2.25;1.77;;;;;;;21.33;nan;-24409.81;4978588;28;20184;-56
2022/07/14 03:20:12;;;;;;;4.65;2.10;;;;;;;21.81;nan;-24422.97;4976769;28;20235;-55
2022/07/14 03:22:38;;;;;;;2.17;1.83;;;;;;;22.45;nan;-24440.56;4975207;28;20269;-56
2022/07/14 03:25:05;;;;;;;2.22;1.92;;;;;;;23.10;nan;-24458.41;4976420;28;20185;-55
2022/07/14 03:27:31;;;;;;;2.10;1.90;;;;;;;24.06;nan;-24484.63;4976320;28;20185;-56
2022/07/14 03:29:56;;;;;;;2.25;1.90;;;;;;;24.59;nan;-24499.13;4975920;28;20199;-56
2022/07/14 03:32:22;;;;;;;4.03;2.30;;;;;;;25.07;nan;-24512.19;4976259;28;20813;-56
2022/07/14 03:34:47;;;;;;;2.63;1.95;;;;;;;25.97;nan;-24536.41;4974946;28;20211;-59
2022/07/14 03:37:13;;;;;;;2.67;2.13;;;;;;;26.18;nan;-24542.31;4976218;28;20225;-56
2022/07/14 03:39:39;;;;;;;4.15;2.00;;;;;;;27.02;nan;-24564.97;4975178;28;20201;-56
2022/07/14 03:42:05;;;;;;;2.90;2.47;;;;;;;27.58;nan;-24580.19;4976426;28;20255;-56
2022/07/14 03:44:30;;;;;;;2.70;2.05;;;;;;;28.13;nan;-24595.00;4975731;28;20590;-56
2022/07/14 03:46:56;;;;;;;2.75;2.20;;;;;;;28.77;nan;-24612.50;4975905;28;20176;-57
2022/07/14 03:49:21;;;;;;;3.80;2.10;;;;;;;28.86;nan;-24614.81;4975847;28;20192;-58
2022/07/14 03:51:47;;;;;;;3.47;2.40;;;;;;;29.06;nan;-24620.16;4973529;28;20192;-58
2022/07/14 03:54:12;;;;;;;2.97;2.22;;;;;;;29.77;nan;-24639.53;4976512;28;20557;-57
2022/07/14 03:56:38;;;;;;;2.65;2.10;;;;;;;30.44;nan;-24657.41;4977054;28;20233;-57
2022/07/14 03:59:04;;;;;;;2.90;1.90;;;;;;;31.18;nan;-24677.41;4976702;28;20671;-57
2022/07/14 04:01:30;;;;;;;2.65;2.30;;;;;;;31.64;nan;-24689.66;4975976;28;20208;-57
2022/07/14 04:03:55;;;;;;;2.55;1.83;;;;;;;32.21;nan;-24705.16;4975831;28;20263;-58
2022/07/14 04:06:20;;;;;;;3.63;1.80;;;;;;;32.56;nan;-24714.38;4978191;28;20621;-58
2022/07/14 04:08:46;;;;;;;2.88;2.13;;;;;;;32.45;nan;-24711.53;4975857;28;20645;-57
2022/07/14 04:11:12;;;;;;;6.00;2.00;;;;;;;32.25;nan;-24706.22;4975931;28;20558;-56
2022/07/14 04:13:38;;;;;;;2.60;1.90;;;;;;;32.54;nan;-24713.84;4973818;28;20229;-57
2022/07/14 04:16:04;;;;;;;2.00;1.70;;;;;;;32.20;nan;-24704.88;4973953;28;20184;-56
2022/07/14 04:18:30;;;;;;;2.03;1.70;;;;;;;32.29;nan;-24707.31;4977078;28;20272;-56
2022/07/14 04:20:55;;;;;;;2.15;1.90;;;;;;;32.73;nan;-24719.13;4976896;28;20192;-56
2022/07/14 04:23:21;;;;;;;2.75;1.70;;;;;;;33.03;nan;-24727.13;4972394;28;20513;-57
2022/07/14 04:25:48;;;;;;;2.70;1.88;;;;;;;32.96;nan;-24725.22;4974715;28;20213;-57
2022/07/14 04:28:14;;;;;;;2.33;2.00;;;;;;;33.66;nan;-24743.91;4972640;28;20172;-56
2022/07/14 04:30:39;;;;;;;1.80;1.60;;;;;;;33.77;nan;-24746.91;4973443;28;20173;-57
2022/07/14 04:33:05;;;;;;;2.05;1.50;;;;;;;33.25;nan;-24732.94;4971821;28;20707;-56
2022/07/14 04:35:30;;;;;;;3.78;1.77;;;;;;;33.46;nan;-24738.50;4972379;28;20714;-57
2022/07/14 04:37:56;;;;;;;1.92;1.65;;;;;;;33.81;nan;-24747.97;4975211;28;20284;-56
2022/07/14 04:40:21;;;;;;;5.70;1.70;;;;;;;34.08;nan;-24755.16;4971812;28;20185;-57
2022/07/14 04:42:47;;;;;;;1.98;1.65;;;;;;;33.73;nan;-24745.81;4975581;28;20262;-57
2022/07/14 04:45:12;;;;;;;3.38;2.15;;;;;;;34.02;nan;-24753.66;4971906;28;20177;-56
2022/07/14 04:47:38;;;;;;;2.35;1.65;;;;;;;33.12;nan;-24729.44;4977047;28;20187;-56
2022/07/14 04:52:49;;;;;;;2.15;1.60;;;;;;;31.98;nan;-24699.03;4975669;28;20726;-57
2022/07/14 04:55:15;;;;;;;2.10;1.80;;;;;;;29.32;nan;-24627.25;4976835;28;20189;-56
2022/07/14 04:57:41;;;;;;;2.55;1.60;;;;;;;29.21;nan;-24624.38;4976116;28;20196;-57
2022/07/14 05:00:09;;;;;;;2.50;1.60;;;;;;;29.13;nan;-24622.06;4976589;28;20189;-58
2022/07/14 05:02:35;;;;;;;1.63;1.52;;;;;;;29.25;nan;-24625.34;4976926;28;20325;-56
2022/07/14 05:05:00;;;;;;;2.75;1.58;;;;;;;28.83;nan;-24614.13;4978204;28;20189;-57
2022/07/14 05:07:26;;;;;;;2.72;1.80;;;;;;;28.46;nan;-24604.16;4982565;28;20180;-57
2022/07/14 05:09:51;;;;;;;2.17;1.60;;;;;;;27.87;nan;-24588.00;4979536;28;20185;-57
2022/07/14 05:12:18;;;;;;;1.73;1.52;;;;;;;27.25;nan;-24571.41;4981867;28;20629;-57
2022/07/14 05:14:44;;;;;;;1.77;1.63;;;;;;;27.45;nan;-24576.78;4979674;28;20181;-57
2022/07/14 05:17:10;;;;;;;2.88;1.42;;;;;;;26.89;nan;-24561.56;4991508;28;20586;-58
2022/07/14 05:19:35;;;;;;;2.58;1.90;;;;;;;26.76;nan;-24557.97;4979937;28;20193;-57
2022/07/14 05:22:01;;;;;;;2.88;1.60;;;;;;;26.63;nan;-24554.53;4980154;28;20209;-58
2022/07/14 05:24:26;;;;;;;2.60;1.60;;;;;;;27.30;nan;-24572.50;4979364;28;20612;-57
2022/07/14 05:26:51;;;;;;;1.60;1.50;;;;;;;27.00;nan;-24564.44;4977566;28;20559;-58
2022/07/14 05:29:17;;;;;;;1.70;1.60;;;;;;;27.18;nan;-24569.50;4978081;28;20267;-57
2022/07/14 05:31:43;;;;;;;3.38;1.70;;;;;;;27.65;nan;-24582.13;4979457;28;20185;-58
2022/07/14 05:34:08;;;;;;;1.50;1.40;;;;;;;27.50;nan;-24578.00;4981287;28;20200;-57
2022/07/14 05:36:35;;;;;;;4.40;1.60;;;;;;;27.17;nan;-24569.09;4980042;28;20226;-57
2022/07/14 05:39:01;;;;;;;2.40;1.60;;;;;;;27.15;nan;-24568.69;4979227;28;20645;-57
2022/07/14 05:41:26;;;;;;;1.63;1.52;;;;;;;27.06;nan;-24566.22;4980815;28;20584;-59
2022/07/14 05:43:51;;;;;;;2.40;1.70;;;;;;;25.78;nan;-24531.47;4979231;28;20184;-57
2022/07/14 05:46:17;;;;;;;2.00;1.80;;;;;;;25.67;nan;-24528.31;4977185;28;20204;-57
2022/07/14 05:48:43;;;;;;;2.90;2.20;;;;;;;25.81;nan;-24532.28;4977332;28;20268;-57
2022/07/14 05:51:14;;;;;;;2.13;1.80;;;;;;;25.39;nan;-24520.88;4977287;28;20346;-57
2022/07/14 05:53:41;;;;;;;3.88;1.90;;;;;;;25.25;nan;-24516.88;4976787;28;20173;-56
2022/07/14 05:56:08;;;;;;;2.78;1.60;;;;;;;24.90;nan;-24507.38;4976139;28;20221;-58
2022/07/14 05:58:35;;;;;;;1.70;1.60;;;;;;;24.47;nan;-24495.81;4976762;28;20188;-59
2022/07/14 06:01:00;;;;;;;2.00;1.60;;;;;;;25.07;nan;-24512.19;4979370;28;20217;-58
2022/07/14 06:03:26;;;;;;;2.80;1.50;;;;;;;25.12;nan;-24513.31;4976304;28;20208;-57
2022/07/14 06:05:51;;;;;;;2.40;1.58;;;;;;;25.02;nan;-24510.81;4974581;28;20189;-56
2022/07/14 06:08:17;;;;;;;3.03;1.85;;;;;;;24.93;nan;-24508.34;4974470;28;20174;-57
2022/07/14 06:10:42;;;;;;;2.38;1.60;;;;;;;24.88;nan;-24506.81;4973287;28;20204;-58
2022/07/14 06:13:08;;;;;;;2.55;1.80;;;;;;;24.90;nan;-24507.38;4975529;28;20177;-57
2022/07/14 06:15:34;;;;;;;2.10;1.70;;;;;;;24.70;nan;-24502.00;4976826;28;20322;-57
2022/07/14 06:17:59;;;;;;;1.75;1.63;;;;;;;25.18;nan;-24514.94;4978799;28;20189;-58
2022/07/14 06:20:25;;;;;;;3.30;1.63;;;;;;;25.03;nan;-24510.97;4975246;28;20660;-58
2022/07/14 06:22:50;;;;;;;4.22;1.80;;;;;;;25.12;nan;-24513.31;4978980;28;20297;-57
2022/07/14 06:25:16;;;;;;;1.83;1.73;;;;;;;25.24;nan;-24516.75;4976572;28;20629;-57
2022/07/14 06:27:42;;;;;;;1.95;1.67;;;;;;;25.24;nan;-24516.75;4975252;28;20245;-57
2022/07/14 06:30:09;;;;;;;2.55;1.55;;;;;;;23.58;nan;-24471.53;4978823;28;20677;-57
2022/07/14 06:32:39;;;;;;;2.53;2.00;;;;;;;25.36;nan;-24520.03;4978897;28;20193;-58
2022/07/14 06:35:06;;;;;;;2.17;1.80;;;;;;;25.61;nan;-24526.66;4979468;28;20268;-57
2022/07/14 06:37:34;;;;;;;2.20;1.70;;;;;;;25.79;nan;-24531.75;4979086;28;20224;-58
2022/07/14 06:40:05;;;;;;;1.73;1.60;;;;;;;25.71;nan;-24529.41;4978843;28;20185;-57
2022/07/14 06:42:32;;;;;;;2.22;1.50;;;;;;;25.41;nan;-24521.28;4977480;28;20194;-57
2022/07/14 06:44:57;;;;;;;2.53;1.90;;;;;;;25.57;nan;-24525.56;4978346;28;20181;-60
2022/07/14 06:47:22;;;;;;;2.40;1.80;;;;;;;25.69;nan;-24528.84;4976358;28;20675;-57
2022/07/14 06:49:48;;;;;;;3.67;1.65;;;;;;;25.67;nan;-24528.44;4976490;28;20272;-56
2022/07/14 06:52:13;;;;;;;2.85;1.80;;;;;;;26.08;nan;-24539.44;4975548;28;20173;-57
2022/07/14 06:54:39;;;;;;;3.17;1.67;;;;;;;26.29;nan;-24545.34;4978395;28;20537;-57
2022/07/14 06:57:05;;;;;;;3.97;2.00;;;;;;;26.22;nan;-24543.28;4976330;28;20181;-58
2022/07/14 06:59:30;;;;;;;1.95;1.65;;;;;;;26.04;nan;-24538.34;4974187;28;20189;-56
2022/07/14 07:01:56;;;;;;;2.00;1.70;;;;;;;26.30;nan;-24545.63;4974190;28;20189;-58
2022/07/14 07:04:23;;;;;;;1.65;1.55;;;;;;;26.44;nan;-24549.34;4977744;28;20211;-57
2022/07/14 07:06:50;;;;;;;3.38;1.60;;;;;;;26.37;nan;-24547.41;4977107;28;20181;-57
2022/07/14 07:09:17;;;;;;;1.50;1.40;;;;;;;26.39;nan;-24547.97;4979226;28;20188;-58
2022/07/14 07:11:45;;;;;;;1.80;1.58;;;;;;;26.24;nan;-24543.97;4976026;28;20181;-57
2022/07/14 07:14:12;;;;;;;2.50;1.60;;;;;;;26.18;nan;-24542.19;4977627;28;20288;-57
2022/07/14 07:16:38;;;;;;;2.15;1.73;;;;;;;26.57;nan;-24552.75;4976202;28;20192;-57
2022/07/14 07:19:04;;;;;;;1.52;1.40;;;;;;;26.44;nan;-24549.34;4976799;28;20192;-58
2022/07/14 07:21:30;;;;;;;2.40;1.70;;;;;;;26.72;nan;-24556.88;4976601;28;20310;-59
2022/07/14 07:23:56;;;;;;;1.60;1.50;;;;;;;26.92;nan;-24562.22;4977963;28;20272;-57
2022/07/14 07:26:24;;;;;;;2.05;1.70;;;;;;;26.70;nan;-24556.31;4979870;28;20295;-58
2022/07/14 07:28:53;;;;;;;2.17;1.75;;;;;;;26.86;nan;-24560.72;4977637;28;20193;-59
2022/07/14 07:31:20;;;;;;;3.47;1.60;;;;;;;26.99;nan;-24564.16;4975734;28;20613;-57
2022/07/14 07:33:46;;;;;;;1.67;1.50;;;;;;;26.98;nan;-24564.00;4975492;28;20213;-57
2022/07/14 07:36:12;;;;;;;1.88;1.60;;;;;;;27.19;nan;-24569.78;4979319;28;20683;-57
2022/07/14 07:38:37;;;;;;;3.58;2.00;;;;;;;27.17;nan;-24569.22;4975735;28;20685;-57
2022/07/14 07:41:03;;;;;;;1.50;1.40;;;;;;;27.12;nan;-24567.72;4978177;28;20189;-57
2022/07/14 07:43:29;;;;;;;1.98;1.48;;;;;;;27.59;nan;-24580.47;4978916;28;20630;-57
2022/07/14 07:45:55;;;;;;;1.63;1.50;;;;;;;27.59;nan;-24580.59;4977699;28;20272;-57
2022/07/14 07:48:21;;;;;;;2.78;1.73;;;;;;;27.54;nan;-24579.09;4975305;28;20565;-56
2022/07/14 07:50:46;;;;;;;2.08;1.50;;;;;;;27.39;nan;-24575.13;4977680;28;20200;-57
2022/07/14 07:53:13;;;;;;;1.88;1.58;;;;;;;27.75;nan;-24584.72;4973242;28;20267;-57
2022/07/14 07:55:40;;;;;;;2.38;1.75;;;;;;;27.63;nan;-24581.56;4975315;28;20264;-57
2022/07/14 07:58:07;;;;;;;2.88;2.38;;;;;;;28.01;nan;-24591.84;4978623;28;20183;-57
2022/07/14 08:00:33;;;;;;;3.05;1.88;;;;;;;27.98;nan;-24591.16;4976167;28;20272;-57
2022/07/14 08:03:01;;;;;;;2.10;1.90;;;;;;;27.91;nan;-24589.09;4977250;28;20204;-58
2022/07/14 08:05:28;;;;;;;4.07;2.22;;;;;;;28.04;nan;-24592.66;4977040;28;20185;-58
2022/07/14 08:07:54;;;;;;;1.85;1.67;;;;;;;28.21;nan;-24597.31;4973233;28;20545;-58
2022/07/14 08:10:20;;;;;;;2.15;1.55;;;;;;;28.20;nan;-24596.91;4975311;28;20251;-57
2022/07/14 08:12:46;;;;;;;2.15;1.67;;;;;;;28.13;nan;-24595.00;4972795;28;20653;-58
2022/07/14 08:15:13;;;;;;;2.30;1.90;;;;;;;28.19;nan;-24596.63;4980076;28;20645;-57
2022/07/14 08:17:39;;;;;;;3.40;1.60;;;;;;;28.40;nan;-24602.38;4977540;28;20186;-57
2022/07/14 08:20:07;;;;;;;2.58;1.70;;;;;;;28.12;nan;-24594.84;4978058;28;20181;-58
2022/07/14 08:22:33;;;;;;;1.73;1.63;;;;;;;28.27;nan;-24598.97;4976100;28;20204;-58
2022/07/14 08:24:58;;;;;;;2.35;1.80;;;;;;;28.29;nan;-24599.38;4977619;28;20181;-58
2022/07/14 08:27:24;;;;;;;1.83;1.45;;;;;;;28.06;nan;-24593.22;4977119;28;20688;-58
2022/07/14 08:29:50;;;;;;;1.98;1.48;;;;;;;27.67;nan;-24582.66;4977509;28;20196;-60
2022/07/14 08:32:17;;;;;;;1.83;1.65;;;;;;;28.51;nan;-24605.38;4974212;28;20173;-57
2022/07/14 08:34:43;;;;;;;2.42;2.00;;;;;;;28.57;nan;-24607.03;4976856;28;20185;-57
2022/07/14 08:37:09;;;;;;;1.77;1.50;;;;;;;28.64;nan;-24608.81;4980827;28;20608;-58
2022/07/14 08:39:34;;;;;;;1.83;1.65;;;;;;;28.98;nan;-24618.09;4981430;28;20189;-58
2022/07/14 08:42:01;;;;;;;2.35;1.50;;;;;;;28.91;nan;-24616.31;4981386;28;20288;-58
2022/07/14 08:44:27;;;;;;;1.60;1.42;;;;;;;28.60;nan;-24607.84;4984669;28;20173;-58
2022/07/14 08:46:55;;;;;;;1.80;1.50;;;;;;;28.49;nan;-24604.97;4980691;28;20196;-58
2022/07/14 08:49:21;;;;;;;1.80;1.42;;;;;;;28.12;nan;-24594.84;4978619;28;20619;-58
2022/07/14 08:51:49;;;;;;;1.50;1.40;;;;;;;28.17;nan;-24596.22;4981386;28;20231;-57
2022/07/14 08:54:15;;;;;;;3.65;1.63;;;;;;;28.52;nan;-24605.78;4978774;28;20626;-58
2022/07/14 08:56:41;;;;;;;2.15;1.65;;;;;;;28.73;nan;-24611.41;4978517;28;20244;-57
2022/07/14 08:59:07;;;;;;;2.72;1.60;;;;;;;29.03;nan;-24619.34;4978485;28;20259;-57
2022/07/14 09:01:33;;;;;;;1.98;1.60;;;;;;;29.06;nan;-24620.16;4979946;28;20585;-57
2022/07/14 09:03:59;;;;;;;1.92;1.60;;;;;;;29.35;nan;-24628.06;4976472;28;20185;-58
2022/07/14 09:06:52;;;;;;;1.77;1.48;;;;;;;29.25;nan;-24625.47;4980423;28;20176;-57
2022/07/14 09:09:24;;;;;;;2.90;1.70;;;;;;;29.20;nan;-24623.97;4980510;28;20208;-57
2022/07/14 09:11:56;;;;;;;1.80;1.40;;;;;;;28.66;nan;-24609.50;4978327;28;20192;-56
2022/07/14 09:14:22;;;;;;;1.75;1.45;;;;;;;28.58;nan;-24607.16;4979947;28;20224;-56
2022/07/14 09:16:47;;;;;;;1.40;1.30;;;;;;;28.29;nan;-24599.38;4977350;28;20327;-57
2022/07/14 09:19:15;;;;;;;5.05;1.70;;;;;;;28.32;nan;-24600.31;4982012;28;20247;-58
2022/07/14 09:21:47;;;;;;;2.70;1.30;;;;;;;28.86;nan;-24614.97;4979511;28;20203;-57
2022/07/14 09:24:16;;;;;;;1.85;1.40;;;;;;;28.55;nan;-24606.63;4983436;28;20180;-57
2022/07/14 09:26:44;;;;;;;1.88;1.63;;;;;;;28.88;nan;-24615.38;4971023;28;20213;-58
2022/07/14 09:29:19;;;;;;;1.83;1.42;;;;;;;29.10;nan;-24621.25;4996115;28;20184;-58
2022/07/14 09:31:45;;;;;;;1.38;1.27;;;;;;;29.13;nan;-24622.06;4979270;28;20193;-58
2022/07/14 09:34:23;;;;;;;1.85;1.40;;;;;;;29.16;nan;-24622.88;4981242;28;20189;-58
2022/07/14 09:36:49;;;;;;;2.17;1.40;;;;;;;29.18;nan;-24623.44;4978896;28;20658;-58
2022/07/14 09:39:15;;;;;;;1.38;1.27;;;;;;;29.76;nan;-24639.28;4979482;28;20268;-58
2022/07/14 09:41:55;;;;;;;1.65;1.55;;;;;;;29.52;nan;-24632.59;4978888;28;20205;-58
2022/07/14 09:44:21;;;;;;;2.35;1.65;;;;;;;29.90;nan;-24642.97;4981081;28;20311;-58
2022/07/14 09:46:54;;;;;;;3.67;1.70;;;;;;;30.12;nan;-24648.94;4979387;28;20211;-58
2022/07/14 09:49:22;;;;;;;5.00;1.67;;;;;;;30.24;nan;-24652.22;4981463;28;20204;-58
2022/07/14 09:52:02;;;;;;;3.42;1.83;;;;;;;30.32;nan;-24654.28;4979729;28;20652;-57
2022/07/14 09:54:37;;;;;;;1.77;1.50;;;;;;;29.95;nan;-24644.31;4979637;28;20168;-57
2022/07/14 09:57:26;;;;;;;1.60;1.50;;;;;;;29.46;nan;-24630.94;4982205;28;20184;-56
2022/07/14 10:00:11;;;;;;;1.95;1.60;;;;;;;29.39;nan;-24629.16;4979297;28;20273;-57
2022/07/14 10:02:41;;;;;;;3.58;1.55;;;;;;;29.53;nan;-24633.00;4983222;28;20206;-57
2022/07/14 10:05:08;;;;;;;2.05;1.45;;;;;;;29.74;nan;-24638.59;4989779;28;20188;-56
2022/07/14 10:07:38;;;;;;;1.60;1.40;;;;;;;29.95;nan;-24644.19;4974750;28;20215;-57
2022/07/14 10:10:15;;;;;;;3.88;1.92;;;;;;;29.81;nan;-24640.63;4976971;28;20189;-56
2022/07/14 10:12:41;;;;;;;2.03;1.45;;;;;;;29.74;nan;-24638.59;4975160;28;20181;-56
2022/07/14 10:15:12;;;;;;;1.77;1.65;;;;;;;29.55;nan;-24633.41;4975664;28;20188;-57
2022/07/14 10:17:40;;;;;;;2.72;1.75;;;;;;;29.80;nan;-24640.22;4977150;28;20272;-58
2022/07/14 10:20:08;;;;;;;2.63;1.52;;;;;;;29.23;nan;-24624.94;4977796;28;20657;-57
2022/07/14 10:22:35;;;;;;;1.55;1.45;;;;;;;29.19;nan;-24623.84;4981941;28;20236;-57
2022/07/14 10:25:03;;;;;;;1.80;1.40;;;;;;;29.57;nan;-24633.94;4978948;28;20189;-58
2022/07/14 10:27:30;;;;;;;2.30;1.63;;;;;;;29.70;nan;-24637.50;4980141;28;20180;-57
2022/07/14 10:29:57;;;;;;;1.75;1.50;;;;;;;29.85;nan;-24641.59;4978996;28;20188;-57
2022/07/14 10:32:59;;;;;;;1.73;1.50;;;;;;;29.70;nan;-24637.63;4978399;28;20185;-57
2022/07/14 10:35:56;;;;;;;2.40;1.83;;;;;;;29.58;nan;-24634.34;4978223;28;20180;-57
2022/07/14 10:38:31;;;;;;;2.00;1.60;;;;;;;29.48;nan;-24631.63;4978603;28;20191;-57
2022/07/14 10:41:28;;;;;;;1.48;1.38;;;;;;;30.09;nan;-24648.13;4976324;28;20197;-56
2022/07/14 10:44:06;;;;;;;1.60;1.40;;;;;;;30.15;nan;-24649.63;4979630;28;20201;-56
2022/07/14 10:46:40;;;;;;;1.95;1.65;;;;;;;30.05;nan;-24646.91;4974586;28;20184;-55
2022/07/14 10:49:08;;;;;;;1.98;1.40;;;;;;;30.09;nan;-24648.13;4974053;28;20335;-56
2022/07/14 10:51:45;;;;;;;1.45;1.35;;;;;;;30.03;nan;-24646.38;4974002;28;20260;-57
2022/07/14 10:54:11;;;;;;;3.13;1.80;;;;;;;29.98;nan;-24645.13;4973656;28;20195;-55
2022/07/14 10:56:38;;;;;;;1.55;1.42;;;;;;;30.13;nan;-24649.09;4975147;28;20568;-55
2022/07/14 10:59:30;;;;;;;1.88;1.40;;;;;;;29.92;nan;-24643.50;4976904;28;20189;-57
2022/07/14 11:02:11;;;;;;;1.58;1.45;;;;;;;30.39;nan;-24656.03;4973739;28;20208;-56
2022/07/14 11:07:32;;;;;;;2.55;1.50;;;;;;;30.56;nan;-24660.69;4973374;28;20178;-56
2022/07/14 11:09:58;;;;;;;3.33;1.70;;;;;;;29.76;nan;-24639.28;4973783;28;20168;-57
2022/07/14 11:12:24;;;;;;;1.52;1.40;;;;;;;29.70;nan;-24637.63;4973452;28;20200;-56
2022/07/14 11:14:49;;;;;;;3.45;1.70;;;;;;;29.71;nan;-24637.91;4973550;28;20261;-56
2022/07/14 11:17:33;;;;;;;1.67;1.48;;;;;;;30.09;nan;-24648.00;4973671;28;20256;-57
2022/07/14 11:19:58;;;;;;;2.35;1.50;;;;;;;30.15;nan;-24649.63;4973120;28;20535;-56
2022/07/14 11:22:25;;;;;;;2.00;1.80;;;;;;;30.23;nan;-24651.94;4973260;28;20259;-56
2022/07/14 11:24:58;;;;;;;1.40;1.30;;;;;;;30.50;nan;-24659.03;4973317;28;20165;-56
2022/07/14 11:27:35;;;;;;;1.50;1.40;;;;;;;30.69;nan;-24664.34;4974972;28;20561;-56
2022/07/14 11:30:17;;;;;;;1.58;1.48;;;;;;;31.16;nan;-24676.88;4973348;28;20184;-56
2022/07/14 11:32:43;;;;;;;1.88;1.70;;;;;;;31.00;nan;-24672.66;4973310;28;20184;-56
2022/07/14 11:38:20;;;;;;;1.83;1.60;;;;;;;30.64;nan;-24662.84;4973063;28;20239;-56
2022/07/14 11:40:53;;;;;;;2.28;1.40;;;;;;;31.01;nan;-24672.94;4953632;28;20620;-56
2022/07/14 11:43:28;;;;;;;1.70;1.60;;;;;;;31.12;nan;-24675.78;4953756;28;20572;-56
2022/07/14 11:45:58;;;;;;;1.55;1.30;;;;;;;31.02;nan;-24673.22;4953536;28;20567;-57
2022/07/14 11:48:30;;;;;;;2.33;1.50;;;;;;;30.91;nan;-24670.06;4968942;28;20200;-55
2022/07/14 11:51:09;;;;;;;1.40;1.30;;;;;;;31.11;nan;-24675.53;4987618;28;20569;-55
2022/07/14 11:53:36;;;;;;;2.03;1.65;;;;;;;31.02;nan;-24673.22;4953611;28;20184;-56